Погода Беховона неделю

Смоленская область, Россия

24 - 30 мая
  • 24мая
    Сегодня
    +8°
    +21°
    Практически безоблачно
    ВремяПогодаТемператураВлажностьДавлениеВетер, м/сВероятность осадков
    00:00Ясно и безоблачно+13°C52 %755 мм4.8 м/с2 %
    03:00Ясно и безоблачно+10°C53 %756 мм4.5 м/с2 %
    06:00Ясно и безоблачно+10°C55 %756 мм4.4 м/с2 %
    09:00Ясно и безоблачно+15°C51 %757 мм4.7 м/с2 %
    12:00Ясно и безоблачно+20°C37 %757 мм5.1 м/с2 %
    15:00Практически безоблачно+21°C34 %757 мм4.8 м/с2 %
    18:00Ясно и безоблачно+20°C36 %756 мм4.6 м/с2 %
    21:00Ясно и безоблачно+15°C52 %757 мм3.1 м/с2 %
  • 25мая
    Суббота
    +9°
    +23°
    Ясно и безоблачно
    ВремяПогодаТемператураВлажностьДавлениеВетер, м/сВероятность осадков
    00:00Ясно и безоблачно+12°C58 %756 мм3.4 м/с2 %
    03:00Ясно и безоблачно+10°C61 %756 мм3.2 м/с2 %
    06:00Ясно и безоблачно+10°C60 %757 мм3.0 м/с2 %
    09:00Ясно и безоблачно+17°C47 %757 мм2.9 м/с2 %
    12:00Ясно и безоблачно+22°C36 %756 мм3.0 м/с2 %
    15:00Ясно и безоблачно+23°C34 %756 мм2.5 м/с2 %
    18:00Ясно и безоблачно+22°C37 %754 мм2.0 м/с2 %
    21:00Ясно и безоблачно+15°C66 %754 мм2.5 м/с2 %
  • 26мая
    Воскресенье
    +10°
    +24°
    Ясно и безоблачно
    ВремяПогодаТемператураВлажностьДавлениеВетер, м/сВероятность осадков
    00:00Ясно и безоблачно+11°C76 %754 мм2.2 м/с2 %
    03:00Облачно с прояснениями+10°C80 %754 мм2.1 м/с2 %
    06:00Облачно с прояснениями+11°C75 %754 мм0.5 м/с2 %
    09:00Облачно с прояснениями+19°C48 %754 мм0.8 м/с2 %
    12:00Облачно с прояснениями+23°C38 %754 мм1.6 м/с2 %
    15:00Ясно и безоблачно+24°C37 %753 мм1.8 м/с2 %
    18:00Ясно и безоблачно+23°C35 %752 мм2.0 м/с2 %
    21:00Ясно и безоблачно+17°C61 %752 мм2.2 м/с2 %
  • 27мая
    Понедельник
    +12°
    +25°
    Практически безоблачно
    ВремяПогодаТемператураВлажностьДавлениеВетер, м/сВероятность осадков
    00:00Ясно и безоблачно+13°C77 %752 мм2.7 м/с2 %
    03:00Ясно и безоблачно+12°C80 %753 мм2.5 м/с2 %
    06:00Ясно и безоблачно+13°C77 %753 мм1.5 м/с2 %
    09:00Ясно и безоблачно+20°C55 %754 мм1.0 м/с2 %
    12:00Практически безоблачно+24°C40 %754 мм1.4 м/с3 %
    15:00Практически безоблачно+24°C40 %753 мм1.7 м/с18 %
    18:00Практически безоблачно+23°C42 %752 мм1.8 м/с29 %
    21:00Ясно и безоблачно+19°C61 %752 мм2.1 м/с2 %
  • 28мая
    Вторник
    +13°
    +25°
    Практически безоблачно
    ВремяПогодаТемператураВлажностьДавлениеВетер, м/сВероятность осадков
    00:00Ясно и безоблачно+15°C78 %753 мм2.8 м/с2 %
    03:00Ясно и безоблачно+13°C88 %752 мм2.1 м/с2 %
    06:00Практически безоблачно+13°C87 %752 мм2.6 м/с2 %
    09:00Ясно и безоблачно+20°C61 %753 мм2.7 м/с2 %
    12:00Практически безоблачно+24°C47 %752 мм3.1 м/с5 %
    15:00Практически безоблачно+25°C43 %752 мм3.1 м/с9 %
    18:00Практически безоблачно+24°C43 %751 мм3.0 м/с5 %
    21:00Ясно и безоблачно+19°C64 %751 мм1.9 м/с3 %
Мы используем cookies
Соглашаюсь